Old San Juan, Puerto Rico
Current Conditions -  °F | °C
As of 9:56 AM on Saturday 01 Nov 2014 (Local Time) from TJSJ Reporting Station
Scattered Clouds Scattered Clouds  
Wind Chill: 87°   Ceiling: Unl
Heat Index: 97°   Visibility: 10mi
Dew Point: 76°   Wind: 5mph
Humidity: 69%   Direction: 90°E
Pressure: 30.01"   Gusts: NA
Location:  18.3829°N, 66.0647°W
Report Text: TJSJ 011356Z 09004KT 10SM SCT035 SCT120 31/24 A3001 RMK AO2 SLP161 T03060244
Loading
Personal Weather Stations






























Interactive Weather Map
Tropical Storm Tracking
New forecast layout! Learn more

10-Day Weather Forecast

Advertisements
Track Severe Weather on mobile